HomeShort term forecast

Short term forecast

Graphical weather forecast for the next 48 hours for Montreal:
Short term forecast
This weather forecast is automatically refreshed every 3 hours.

Hourly Experimental Forecast for the next 48 hours ®

Overall summary: Partly cloudy starting this afternoon.

 Date & Hour   Temp   Feel   Baro   Hum   Speed & Bearing   Wind Gust   Precip.%   Precip.   Visibility   Cloud cover   Conditions 
 16/10/2018 - 07:00  3.2°C  -1.6°C  1013.7 hPa  72%  23.4 km/h   45.8 km/h  4%  --  16.1km  58%  Partly Cloudy 
 16/10/2018 - 08:00  2.4°C  -2.7°C  1014.5 hPa  77%  23.3 km/h   47.5 km/h  4%  0.04 mm/h  16.1km  19%  Clear 
 16/10/2018 - 09:00  3.1°C  -1.9°C  1015.3 hPa  73%  24.2 km/h   45.5 km/h  2%  0.01 mm/h  16.1km  16%  Clear 
 16/10/2018 - 10:00  3.4°C  -1.4°C  1015.8 hPa  71%  24.1 km/h   40.8 km/h  0%  --  16.1km  25%  Partly Cloudy 
 16/10/2018 - 11:00  4.7°C  0.2°C  1016.0 hPa  65%  24.2 km/h   39.0 km/h  0%  --  16.1km  26%  Partly Cloudy 
 16/10/2018 - 12:00  5.8°C  1.8°C  1015.8 hPa  61%  23.2 km/h   39.0 km/h  4%  0.04 mm/h  16.1km  10%  Clear 
 16/10/2018 - 13:00  6.8°C  3.1°C  1015.3 hPa  58%  22.8 km/h   41.6 km/h  7%  0.04 mm/h  16.1km  19%  Clear 
 16/10/2018 - 14:00  7.4°C  3.8°C  1014.7 hPa  57%  22.5 km/h   41.2 km/h  7%  0.02 mm/h  16.1km  35%  Partly Cloudy 
 16/10/2018 - 15:00  7.8°C  4.5°C  1014.2 hPa  57%  21.0 km/h   38.9 km/h  5%  0.01 mm/h  16.1km  43%  Partly Cloudy 
 16/10/2018 - 16:00  8.4°C  5.6°C  1013.4 hPa  58%  18.4 km/h   38.0 km/h  0%  --  16.1km  41%  Partly Cloudy 
 16/10/2018 - 17:00  8.9°C  6.5°C  1012.8 hPa  58%  16.1 km/h   34.9 km/h  0%  --  16.1km  63%  Mostly Cloudy 
 16/10/2018 - 18:00  8.9°C  6.7°C  1012.3 hPa  60%  14.4 km/h   33.9 km/h  4%  0.01 mm/h  16.1km  62%  Mostly Cloudy 
 16/10/2018 - 19:00  8.5°C  6.0°C  1012.1 hPa  62%  16.1 km/h   38.9 km/h  6%  0.02 mm/h  16.1km  53%  Partly Cloudy 
 16/10/2018 - 20:00  8.4°C  5.6°C  1011.6 hPa  62%  18.8 km/h   40.7 km/h  0%  --  16.1km  65%  Mostly Cloudy 
 16/10/2018 - 21:00  7.9°C  4.9°C  1011.3 hPa  64%  18.7 km/h   43.9 km/h  3%  0.01 mm/h  16.1km  56%  Partly Cloudy 
 16/10/2018 - 22:00  7.4°C  4.3°C  1011.0 hPa  66%  18.6 km/h   47.7 km/h  3%  0.01 mm/h  16.1km  42%  Partly Cloudy 
 16/10/2018 - 23:00  7.2°C  4.0°C  1010.7 hPa  68%  18.4 km/h   50.0 km/h  3%  0.01 mm/h  16.1km  48%  Partly Cloudy 
 17/10/2018 - 00:00  7.2°C  4.1°C  1010.2 hPa  69%  18.0 km/h   49.7 km/h  4%  0.01 mm/h  16.1km  50%  Partly Cloudy 
 17/10/2018 - 01:00  7.1°C  4.0°C  1009.7 hPa  70%  17.5 km/h   48.1 km/h  6%  0.02 mm/h  16.1km  47%  Partly Cloudy 
 17/10/2018 - 02:00  7.3°C  4.3°C  1009.1 hPa  70%  17.2 km/h   46.5 km/h  8%  0.04 mm/h  16.1km  53%  Partly Cloudy 
 17/10/2018 - 03:00  7.6°C  4.5°C  1008.3 hPa  71%  17.9 km/h   45.5 km/h  7%  0.02 mm/h  16.1km  63%  Mostly Cloudy 
 17/10/2018 - 04:00  7.3°C  4.1°C  1007.5 hPa  74%  18.7 km/h   44.4 km/h  7%  0.02 mm/h  16.1km  78%  Mostly Cloudy 
 17/10/2018 - 05:00  7.0°C  3.8°C  1007.0 hPa  77%  18.7 km/h   43.4 km/h  19%  0.11 mm/h  16.1km  84%  Mostly Cloudy 
 17/10/2018 - 06:00  6.4°C  3.0°C  1006.8 hPa  81%  18.3 km/h   42.7 km/h  10%  0.03 mm/h  16.1km  83%  Mostly Cloudy 
 17/10/2018 - 07:00  5.9°C  2.5°C  1006.7 hPa  83%  17.8 km/h   42.2 km/h  20%  0.13 mm/h  16.1km  76%  Mostly Cloudy 
 17/10/2018 - 08:00  6.0°C  2.6°C  1006.8 hPa  81%  18.0 km/h   42.1 km/h  22%  0.21 mm/h  16.1km  70%  Mostly Cloudy 
 17/10/2018 - 09:00  6.4°C  2.9°C  1006.6 hPa  77%  19.9 km/h   42.4 km/h  17%  0.15 mm/h  16.1km  53%  Partly Cloudy 
 17/10/2018 - 10:00  7.1°C  3.5°C  1006.5 hPa  72%  21.9 km/h   42.2 km/h  12%  0.09 mm/h  16.1km  65%  Mostly Cloudy 
 17/10/2018 - 11:00  7.3°C  3.5°C  1006.4 hPa  69%  24.2 km/h   41.5 km/h  8%  0.05 mm/h  16.1km  62%  Mostly Cloudy 
 17/10/2018 - 12:00  7.7°C  3.9°C  1006.3 hPa  65%  25.4 km/h   41.5 km/h  8%  0.04 mm/h  16.1km  62%  Mostly Cloudy 
 17/10/2018 - 13:00  7.8°C  4.0°C  1006.3 hPa  61%  26.7 km/h   42.1 km/h  11%  0.07 mm/h  16.1km  72%  Mostly Cloudy 
 17/10/2018 - 14:00  7.5°C  3.6°C  1006.4 hPa  59%  27.6 km/h   42.5 km/h  12%  0.10 mm/h  16.1km  77%  Breezy and Mostly Cloudy 
 17/10/2018 - 15:00  7.2°C  3.1°C  1007.0 hPa  58%  27.4 km/h   41.9 km/h  12%  0.12 mm/h  16.1km  83%  Breezy and Mostly Cloudy 
 17/10/2018 - 16:00  7.1°C  3.1°C  1007.6 hPa  56%  26.7 km/h   40.9 km/h  11%  0.12 mm/h  16.1km  94%  Overcast 
 17/10/2018 - 17:00  6.8°C  2.8°C  1008.5 hPa  55%  26.0 km/h   40.6 km/h  10%  0.10 mm/h  14.5km  90%  Mostly Cloudy 
 17/10/2018 - 18:00  6.3°C  2.2°C  1009.5 hPa  55%  24.8 km/h   41.5 km/h  9%  0.07 mm/h  15.4km  80%  Mostly Cloudy 
 17/10/2018 - 19:00  5.5°C  1.3°C  1010.7 hPa  56%  23.4 km/h   42.9 km/h  6%  0.03 mm/h  16.1km  71%  Mostly Cloudy 
 17/10/2018 - 20:00  4.8°C  0.5°C  1011.7 hPa  57%  22.7 km/h   44.0 km/h  4%  0.01 mm/h  16.1km  81%  Mostly Cloudy 
 17/10/2018 - 21:00  4.1°C  -0.3°C  1012.4 hPa  58%  22.5 km/h   44.2 km/h  4%  0.01 mm/h  16.1km  75%  Mostly Cloudy 
 17/10/2018 - 22:00  3.5°C  -1.2°C  1013.1 hPa  59%  22.8 km/h   44.1 km/h  0%  --  16.1km  54%  Partly Cloudy 
 17/10/2018 - 23:00  3.0°C  -1.8°C  1013.8 hPa  60%  23.0 km/h   44.3 km/h  0%  --  16.1km  47%  Partly Cloudy 
 18/10/2018 - 00:00  2.5°C  -2.5°C  1014.5 hPa  60%  23.3 km/h   45.1 km/h  0%  --  16.1km  52%  Partly Cloudy 
 18/10/2018 - 01:00  2.0°C  -3.3°C  1015.1 hPa  60%  24.1 km/h   46.2 km/h  0%  --  16.1km  35%  Partly Cloudy 
 18/10/2018 - 02:00  1.5°C  -4.0°C  1015.9 hPa  60%  24.7 km/h   47.2 km/h  0%  --  16.1km  34%  Breezy and Partly Cloudy 
 18/10/2018 - 03:00  1.1°C  -4.5°C  1016.6 hPa  59%  25.0 km/h   48.1 km/h  0%  --  16.1km  34%  Breezy and Partly Cloudy 
 18/10/2018 - 04:00  0.6°C  -5.2°C  1017.4 hPa  58%  25.8 km/h   48.9 km/h  0%  --  16.1km  43%  Breezy and Partly Cloudy 
 18/10/2018 - 05:00  0.0°C  -6.0°C  1018.3 hPa  58%  25.7 km/h   49.0 km/h  0%  --  16.1km  38%  Breezy and Partly Cloudy 
 18/10/2018 - 06:00  -0.8°C  -6.9°C  1019.3 hPa  60%  25.4 km/h   48.2 km/h  0%  --  16.1km  18%  Breezy 
Test

 

Past weather and reports

Past weatherFind in this section the past weather conditions, weather archive, graphics, reports and statistics.

Current conditions

Current weather condition for MontrealAll you need to know about the current weather conditions for Montreal. Weather data is updated every 10 minutes.

Weather forecast

Current Montreal weatherSince 2004, celinium.com website has provided accurate weather forecast for Montreal's island.